首页
METAR-TAF:

METAR-TAF

机场 :

Branson, 密蘇里州, 美国

纬度: 36-31-55N, 经度: 093-12-02W, 海拔: 397米

当前天气观测

该预报发布于45分钟前的01:46 UTC
风速8节,风向东南
温度 0°C
湿度 100%
气压 1017 hPa
能見度: 4.8公里
阴天层高于400英尺
小雨

METAR: KBBG 230146Z 13008KT 3SM -RA OVC004 00/00 A3003

时间: 20:31 (02:31 UTC)

预报

该预报发布于2小时和59分钟前的23:32 UTC
预报有效从23日的 00点(UTC)到 23日的 24点(UTC)
风速9节,风向东南
能見度: 4.8公里
阴天层高于500英尺
(小) 冻, 雨, 轻雾
短暂存在
从 23日的 02点(UTC)到 23日的 04点(UTC)
能見度: 3.2公里
阴天层高于500英尺
小雨, 轻雾
从 23日的 0400点(UTC)
风速8节,风向东南
能見度: 6.4公里
阴天层高于400英尺
小雨, 轻雾
短暂存在
从 23日的 04点(UTC)到 23日的 08点(UTC)
能見度: 3.2公里
阴天层高于900英尺
小雨, 轻雾
从 23日的 0800点(UTC)
风速5节,风向南转南东
能見度: 6.4公里
阴天层高于300英尺
小雨, 轻雾
从 23日的 1500点(UTC)
风速4节,风向多变
能見度: 6.4公里
阴天层高于700英尺
小雨, 轻雾
从 23日的 2000点(UTC)
风速7节,风向西
能見度: 9.7公里
阴天层高于1000英尺
小雨, 轻雾

TAF: KBBG 222332Z 2300/2324 14009KT 3SM -FZRA BR OVC005 WS020/19040KT TEMPO 2302/2304 2SM -RA BR OVC005 FM230400 14008KT 4SM -RA BR OVC004 WS020/20035KT TEMPO 2304/2308 2SM -RA BR OVC009 FM230800 15005KT 4SM -RA BR OVC003 FM231500 VRB04KT 4SM -RA BR OVC007 FM232000 27007KT 6SM -RA BR OVC010

超过4000个机场的气象观测和天气预报(METAR&TAF报告)。

可查询的气象台以黄色和红色小点在地图上表示。

将鼠标移到小点上方,可查看气象台名称。

然后点击查看天气观测和预报。

如需切换地图:点击带黑十字的绿色按钮放大地图;点击带横线的绿色按钮缩小地图;或者点击绿色箭头查看邻近地区的地图。


METAR-TAF: